LFPGLFVP

Guest
Details From LFPG - Paris Charles De Gaulle
To LFVP - St Pierre
Flight Number -
Tags Generated
Created
Modified
Stats Distance 2,309 nm / 4,275 km
Max Altitude 0 ft / 0 m
Waypoints 4
Social Downloads 0
Likes 0
Share VATSIM

Download

Looking for another format? Having issues loading an existing format? Contact us
Advertisement - Login to hide

Notes

Generated

Route

LFPG BIGNO SP LFVP

ID Type Via Altitude Latitude Longitude Leg Dist Tot Dist Heading (true) Name
O LFPG APT - 0 ft / 0 m 49.02472˚ 2.52489˚ - 0 nm - -
BIGNO FIX - 0 ft / 0 m 50.00000˚ -2.82500˚ 216 nm 216 nm 288° / 284° -
SP NDB - 0 ft / 0 m 46.76250˚ -56.16944˚ 2091 nm 2307 nm 286° / 245° ST-PIERRE NDB
O LFVP APT - 0 ft / 0 m 46.75844˚ -56.18559˚ 0 nm 2308 nm 250° / 250° -

Altitude Profile

Advertisement - Login to hide

Weather


0- 5 10 15 20 25 30 35+ Temperature / ° C

Clouds and Precipitation
Forecast for 2017-12-18 12:00 UTC. Updated 2 hours ago

Ground ~20,000 ft ~40,000 ft Winds

LFPG

Details ICAO LFPG (CDG)
Name Paris Charles De Gaulle
Region France
Timezone Europe/Paris (UTC+1.0)
Stats Elevation 392 ft / 119 m (AMSL)
Location 49.009742° 2.562619°
Runways 4
Magnetic Variation 0.643° E

METAR

LFPG 181030Z 35012KT 9999 FEW015 SCT260 07/05 Q1025 NOSIG

Decode

TAF

TAF LFPG 180500Z 1806/1912 35010KT 9999 BKN030 BECMG 1821/1824 3000 BR BECMG 1900/1903 0800 FG BKN002 PROB40 TEMPO 1903/1910 0400 FG BKN001 BECMG 1910/1912 4000 BKN003 TX08/1806Z TN02/1903Z

Decode

Departure Runways

ID Width Length Bearing (true) Bearing (mag) Surface Threshold Offset Overrun Length
08L 148 ft / 45 m 14,039 ft / 4,279 m 85.37° 84.73° Asphalt 0 ft / 0 m 0 ft / 0 m
08R 197 ft / 60 m 8,797 ft / 2,681 m 85.39° 84.75° Asphalt 0 ft / 0 m 0 ft / 0 m
09L 197 ft / 60 m 8,835 ft / 2,693 m 85.39° 84.75° Asphalt 0 ft / 0 m 0 ft / 0 m
09R 148 ft / 45 m 13,744 ft / 4,189 m 85.38° 84.74° Asphalt 0 ft / 0 m 0 ft / 0 m
26L 197 ft / 60 m 8,797 ft / 2,681 m 265.41° 264.77° Asphalt 0 ft / 0 m 0 ft / 0 m
26R 148 ft / 45 m 14,039 ft / 4,279 m 265.41° 264.77° Asphalt 1,893 ft / 577 m 0 ft / 0 m
27L 148 ft / 45 m 13,744 ft / 4,189 m 265.42° 264.78° Asphalt 1,969 ft / 600 m 0 ft / 0 m
27R 197 ft / 60 m 8,835 ft / 2,693 m 265.41° 264.77° Asphalt 0 ft / 0 m 0 ft / 0 m

LFVP

Details ICAO LFVP (FSP)
Name St Pierre
Region France
Timezone Unknown (UTC+0.0)
Stats Elevation 27 ft / 8 m (AMSL)
Location 46.762662° -56.175529°
Runways 1
Magnetic Variation 18.222° W

METAR

LFVP 181000Z 29019KT 250V310 9999 BKN016 BKN040 M03/M05 Q1011 NOSIG

Decode

TAF

TAF LFVP 180900Z 1810/1818 30018KT 9999 BKN030 BKN043 TEMPO 1810/1818 1000 -SHSN BKN006 BKN020

Decode

Destination Runways

ID Width Length Bearing (true) Bearing (mag) Surface Threshold Offset Overrun Length
08 150 ft / 46 m 5,902 ft / 1,799 m 58.48° 76.70° Asphalt 0 ft / 0 m 0 ft / 0 m
26 150 ft / 46 m 5,902 ft / 1,799 m 238.50° 256.72° Asphalt 0 ft / 0 m 0 ft / 0 m

Popular Alternatives